Denver International Airport

Airport
ICAO code: 
KDEN
IATA Code: 
DEN
Summary
ICAO Region: 
NAM
Territory: 
Location: 
Denver, Colorado,
Serving: 
Denver
Elevation: 
5431 ft
Coordinates: 
Aerial View: 
39° 51' 33.574" N, 104° 40' 19.244" W
Airport RE: 
Hot and High Operations
Metar
Observation
KDEN 041053Z 22007KT 10SM CLR 02/M03 A3011 RMK AO2 SLP169 T00221028
Station
Denver, Denver International Airport
Date/Time
2021-12-04 10:53:00
Wind direction
220°
Wind speed
07 kts
Lowest cloud amount
n/a
Temperature
2.2°C
Dew point
-2.8°C
Humidity
69%
Weather condition
n/a

Description

International airport serving the City of Denver.

Climatology

Cold Semi-arid climate (Köppen climate classification BSk). - Hot, sometimes extremely hot summers and cold, sometimes very cold winters. Some snowfall during the winter. Areas featuring cold semi-arid climates are sometimes subject to major temperature swings during a 24 hour period.

Runways

Designator Length Width Surface Rops
7/25 3658 46 CON Yes/Yes
8/26 3658 46 CON Yes/Yes
16L/34R 3658 46 CON Yes/Yes
17L/35R 3658 46 CON Yes/Yes
17R/35L 3658 46 CON Yes/Yes
16R/34L 4877 61 CON Yes/Yes
Airport map: 
Aerial View: 

SKYbrary Partners:

Safety knowledge contributed by: